Asau, Samoa

3:59 PM WSST on August 25, 2016 (GMT +1300)
Faleolo International | | Change Station

Elev 16 ft 13.83 °S, 172.01 °W | Updated 59 minutes ago

Mostly Cloudy
Mostly Cloudy
81 °F
Feels Like 85 °F
N
9
Wind Variable Wind from ESE

Today
High -- | Low -- °F
--% Chance of Precip.
Yesterday
High -- | Low -- °F
Precip. -- in
Pressure 29.92 in
Visibility 6.2 miles
Clouds Few 2000 ft
Scattered Clouds 4000 ft
Mostly Cloudy 12000 ft
Heat Index 85 °F
Dew Point 73 °F
Humidity 79%
Rainfall 0.00 in
Snow Depth Not available.
6:39 AM 6:25 PM
Waning Gibbous, 50% visible
METAR NSFA 250200Z 11008KT 9999 FEW020 SCT040 BKN120 27/23 Q1013
Pressure 29.92 in
Visibility 6.2 miles
Clouds Few 2000 ft
Scattered Clouds 4000 ft
Mostly Cloudy 12000 ft
Heat Index 85 °F
Dew Point 73 °F
Humidity 79%
Rainfall 0.00 in
Snow Depth Not available.
6:39 AM 6:25 PM
Waning Gibbous, 50% visible
METAR NSFA 250200Z 11008KT 9999 FEW020 SCT040 BKN120 27/23 Q1013

10-Day Weather Forecast

No radar image for this location.
×

Almanac

Astronomy

Aug. 25, 2016 Rise Set
Actual Time
Civil Twilight
Nautical Twilight
Astronomical Twilight
Moon
Length of Visible Light
Length of Day
Tomorrow will be .
, % of the Moon is Illuminated

Today's Extremes

Country Highs Country Lows

Community

WunderPhotos

Upload Photos

1,934,779 photos uploaded!

WunderBlog® & News

Nearby

Air Quality

  Air Quality AQ Index Pollutant
Not available.

Snow Depth

Station Depth Elevation

Earthquake Activity

City Distance Mag. Time & Date
Minimum magnitude displayed is 2.5.

Coastal Water Temperatures

Place Temperature

Stations

Nearby Weather Stations

Station Location Temp. Windchill Dew Point Humidity Wind Precip. Elev Updated Type